createdAt,value
2018-06-10T00:00:02.846Z,20.96
2018-06-10T00:02:33.228Z,20.96
2018-06-10T00:05:00.447Z,20.99
2018-06-10T00:07:27.672Z,20.99
2018-06-10T00:09:54.997Z,20.90
2018-06-10T00:12:22.308Z,20.88
2018-06-10T00:14:50.396Z,20.89
2018-06-10T00:17:17.787Z,20.82
2018-06-10T00:19:44.999Z,20.76
2018-06-10T00:22:12.324Z,20.82
2018-06-10T00:24:39.636Z,20.88
2018-06-10T00:27:07.009Z,20.91
2018-06-10T00:29:34.366Z,20.76
2018-06-10T00:32:01.626Z,20.65
2018-06-10T00:34:28.871Z,20.70
2018-06-10T00:36:56.152Z,20.69
2018-06-10T00:39:23.480Z,20.66
2018-06-10T00:41:50.748Z,20.63
2018-06-10T00:44:18.116Z,20.62
2018-06-10T00:46:45.375Z,20.62
2018-06-10T00:49:12.681Z,20.53
2018-06-10T00:51:40.036Z,20.56
2018-06-10T00:54:07.292Z,20.59
2018-06-10T00:56:46.328Z,20.58
2018-06-10T00:59:13.671Z,20.49
2018-06-10T01:01:40.990Z,20.50
2018-06-10T01:04:08.353Z,20.44
2018-06-10T01:06:35.621Z,20.37
2018-06-10T01:09:03.461Z,20.33
2018-06-10T01:11:30.722Z,20.25
2018-06-10T01:13:58.039Z,20.33
2018-06-10T01:16:25.392Z,20.33
2018-06-10T01:18:52.688Z,20.25
2018-06-10T01:21:19.953Z,20.26
2018-06-10T01:23:47.198Z,20.11
2018-06-10T01:26:19.992Z,20.18
2018-06-10T01:28:47.261Z,20.15
2018-06-10T01:31:14.556Z,20.13
2018-06-10T01:33:41.876Z,20.16
2018-06-10T01:36:09.220Z,20.10
2018-06-10T01:38:36.479Z,20.15
2018-06-10T01:41:03.851Z,20.20
2018-06-10T01:43:31.178Z,20.14
2018-06-10T01:45:58.425Z,20.18
2018-06-10T01:48:25.717Z,20.16
2018-06-10T01:50:52.999Z,20.19
2018-06-10T01:53:20.273Z,20.20
2018-06-10T01:55:47.553Z,20.12
2018-06-10T01:58:14.883Z,20.07
2018-06-10T02:00:42.270Z,20.10
2018-06-10T02:03:09.530Z,19.97
2018-06-10T02:05:36.849Z,20.08
2018-06-10T02:08:04.183Z,20.02
2018-06-10T02:10:31.487Z,19.98
2018-06-10T02:12:58.806Z,19.95
2018-06-10T02:15:26.145Z,19.91
2018-06-10T02:17:53.405Z,19.83
2018-06-10T02:20:20.637Z,19.60
2018-06-10T02:22:47.938Z,19.59
2018-06-10T02:25:15.394Z,19.61
2018-06-10T02:27:42.711Z,19.56
2018-06-10T02:30:10.027Z,19.61
2018-06-10T02:32:37.270Z,19.60
2018-06-10T02:35:04.563Z,19.58
2018-06-10T02:37:31.907Z,19.55
2018-06-10T02:39:59.184Z,19.57
2018-06-10T02:42:26.517Z,19.51
2018-06-10T02:44:53.839Z,19.41
2018-06-10T02:47:21.139Z,19.41
2018-06-10T02:49:48.523Z,19.44
2018-06-10T02:52:15.836Z,19.46
2018-06-10T02:54:43.085Z,19.46
2018-06-10T02:57:10.289Z,19.40
2018-06-10T02:59:37.562Z,19.41
2018-06-10T03:02:04.874Z,19.25
2018-06-10T03:04:32.181Z,19.24
2018-06-10T03:06:59.532Z,19.30
2018-06-10T03:09:26.824Z,19.17
2018-06-10T03:11:54.100Z,19.23
2018-06-10T03:14:21.323Z,19.28
2018-06-10T03:16:48.555Z,19.20
2018-06-10T03:19:15.844Z,19.18
2018-06-10T03:21:43.285Z,19.18
2018-06-10T03:24:10.512Z,19.24
2018-06-10T03:26:37.895Z,19.25
2018-06-10T03:29:05.197Z,19.26
2018-06-10T03:31:32.616Z,19.22
2018-06-10T03:33:59.909Z,19.27
2018-06-10T03:36:27.194Z,19.30
2018-06-10T03:38:54.515Z,18.71
2018-06-10T03:41:21.829Z,19.27
2018-06-10T03:43:49.121Z,19.32
2018-06-10T03:46:16.354Z,19.25
2018-06-10T03:48:43.621Z,19.17
2018-06-10T03:51:10.869Z,19.14
2018-06-10T03:53:38.122Z,19.20
2018-06-10T03:56:05.451Z,19.19
2018-06-10T03:58:32.707Z,19.21
2018-06-10T04:01:00.014Z,19.26
2018-06-10T04:03:27.283Z,19.17
2018-06-10T04:05:54.603Z,19.15
2018-06-10T04:08:21.831Z,19.06
2018-06-10T04:10:49.135Z,19.03
2018-06-10T04:13:16.378Z,19.18
2018-06-10T04:15:43.700Z,19.24
2018-06-10T04:18:10.962Z,19.34
2018-06-10T04:20:38.265Z,19.32
2018-06-10T04:23:05.459Z,19.34
2018-06-10T04:25:32.810Z,19.47
2018-06-10T04:28:00.016Z,19.44
2018-06-10T04:30:27.358Z,19.56
2018-06-10T04:32:54.583Z,19.65
2018-06-10T04:35:21.916Z,19.82
2018-06-10T04:37:49.197Z,19.86
2018-06-10T04:40:16.477Z,19.74
2018-06-10T04:42:43.730Z,19.70
2018-06-10T04:45:11.010Z,19.70
2018-06-10T04:47:38.279Z,19.80
2018-06-10T04:50:05.570Z,19.85
2018-06-10T04:52:32.839Z,19.97
2018-06-10T04:55:00.116Z,20.10
2018-06-10T04:57:27.397Z,20.22
2018-06-10T04:59:54.646Z,20.23
2018-06-10T05:02:21.915Z,20.23
2018-06-10T05:04:49.162Z,20.36
2018-06-10T05:07:16.470Z,20.37
2018-06-10T05:09:43.701Z,20.54
2018-06-10T05:12:11.033Z,20.60
2018-06-10T05:14:38.334Z,20.56
2018-06-10T05:17:05.667Z,20.49
2018-06-10T05:19:32.982Z,20.55
2018-06-10T05:22:00.251Z,20.54
2018-06-10T05:24:27.492Z,20.36
2018-06-10T05:26:54.821Z,20.35
2018-06-10T05:29:22.859Z,20.33
2018-06-10T05:31:50.102Z,20.46
2018-06-10T05:34:17.280Z,20.75
2018-06-10T05:36:44.559Z,20.80
2018-06-10T05:39:43.464Z,20.67
2018-06-10T05:42:10.776Z,20.74
2018-06-10T05:44:38.070Z,20.95
2018-06-10T05:47:05.334Z,20.92
2018-06-10T05:49:32.538Z,21.16
2018-06-10T05:51:59.830Z,21.17
2018-06-10T05:54:27.129Z,21.23
2018-06-10T05:56:54.392Z,21.52
2018-06-10T05:59:21.659Z,21.39
2018-06-10T06:01:48.972Z,21.56
2018-06-10T06:04:16.390Z,21.51
2018-06-10T06:06:43.743Z,21.57
2018-06-10T06:09:11.077Z,21.57
2018-06-10T06:11:38.386Z,21.63
2018-06-10T06:14:05.668Z,21.82
2018-06-10T06:16:32.996Z,21.85
2018-06-10T06:19:00.302Z,22.18
2018-06-10T06:21:27.568Z,21.74
2018-06-10T06:23:54.934Z,22.44
2018-06-10T06:26:22.319Z,22.36
2018-06-10T06:28:49.604Z,22.65
2018-06-10T06:31:16.866Z,23.05
2018-06-10T06:33:44.275Z,23.10
2018-06-10T06:36:11.588Z,23.18
2018-06-10T06:38:38.856Z,23.08
2018-06-10T06:41:06.230Z,23.20
2018-06-10T06:43:33.593Z,23.38
2018-06-10T06:46:00.866Z,23.26
2018-06-10T06:48:28.127Z,23.40
2018-06-10T06:50:55.407Z,23.53
2018-06-10T06:53:22.687Z,23.71
2018-06-10T06:55:50.015Z,23.71
2018-06-10T06:58:17.266Z,23.76
2018-06-10T07:00:44.570Z,23.66
2018-06-10T07:03:11.817Z,23.82
2018-06-10T07:05:39.193Z,23.97
2018-06-10T07:08:06.495Z,24.43
2018-06-10T07:10:33.805Z,24.67
2018-06-10T07:13:01.118Z,25.11
2018-06-10T07:15:28.400Z,25.43
2018-06-10T07:17:55.648Z,25.28
2018-06-10T07:20:22.949Z,24.80
2018-06-10T07:22:50.262Z,24.76
2018-06-10T07:25:17.582Z,24.75
2018-06-10T07:27:44.786Z,24.72
2018-06-10T07:30:12.080Z,24.81
2018-06-10T07:32:39.357Z,24.69
2018-06-10T07:35:06.671Z,25.20
2018-06-10T07:37:33.913Z,25.69
2018-06-10T07:40:01.214Z,25.61
2018-06-10T07:42:28.635Z,25.99
2018-06-10T07:44:55.910Z,26.22
2018-06-10T07:47:23.302Z,26.43
2018-06-10T07:49:50.629Z,26.89
2018-06-10T07:52:17.965Z,26.97
2018-06-10T07:54:45.335Z,27.19
2018-06-10T07:57:12.758Z,27.41
2018-06-10T07:59:40.148Z,27.56
2018-06-10T08:02:07.569Z,27.45
2018-06-10T08:04:34.937Z,27.47
2018-06-10T08:07:02.168Z,27.73
2018-06-10T08:09:29.434Z,27.58
2018-06-10T08:11:56.702Z,27.90
2018-06-10T08:14:24.017Z,27.78
2018-06-10T08:16:51.319Z,27.99
2018-06-10T08:19:18.683Z,27.69
2018-06-10T08:21:46.069Z,27.92
2018-06-10T08:24:13.833Z,27.80
2018-06-10T08:26:41.388Z,27.95
2018-06-10T08:29:08.781Z,27.90
2018-06-10T08:31:36.206Z,28.09
2018-06-10T08:34:03.467Z,28.20
2018-06-10T08:36:30.809Z,28.39
2018-06-10T08:38:58.178Z,28.51
2018-06-10T08:41:25.556Z,28.51
2018-06-10T08:43:53.011Z,28.23
2018-06-10T08:46:20.274Z,28.27
2018-06-10T08:48:47.528Z,28.28
2018-06-10T08:51:14.823Z,28.60
2018-06-10T08:53:42.211Z,28.20
2018-06-10T08:56:09.509Z,27.92
2018-06-10T08:58:36.761Z,27.57
2018-06-10T09:01:04.061Z,27.96
2018-06-10T09:03:31.415Z,28.40
2018-06-10T09:05:58.753Z,28.28
2018-06-10T09:08:26.092Z,28.04
2018-06-10T09:10:53.415Z,28.32
2018-06-10T09:13:20.729Z,27.84
2018-06-10T09:15:48.055Z,28.72
2018-06-10T09:18:15.483Z,28.66
2018-06-10T09:20:42.787Z,29.20
2018-06-10T09:23:10.121Z,29.16
2018-06-10T09:25:37.443Z,28.82
2018-06-10T09:28:04.879Z,28.61
2018-06-10T09:30:32.161Z,28.79
2018-06-10T09:32:59.464Z,29.26
2018-06-10T09:35:26.881Z,29.39
2018-06-10T09:37:54.197Z,29.83
2018-06-10T09:40:21.576Z,30.07
2018-06-10T09:42:48.837Z,30.33
2018-06-10T09:45:16.207Z,30.57
2018-06-10T09:47:43.692Z,30.51
2018-06-10T09:50:11.192Z,29.99
2018-06-10T09:52:38.510Z,29.61
2018-06-10T09:55:05.933Z,29.89
2018-06-10T09:57:33.202Z,30.30
2018-06-10T10:00:00.561Z,30.70
2018-06-10T10:02:27.833Z,30.59
2018-06-10T10:04:55.185Z,30.41
2018-06-10T10:07:22.618Z,30.51
2018-06-10T10:09:50.587Z,30.21
2018-06-10T10:12:17.962Z,30.07
2018-06-10T10:14:45.562Z,30.18
2018-06-10T10:17:13.651Z,30.14
2018-06-10T10:19:41.080Z,30.07
2018-06-10T10:22:08.394Z,29.85
2018-06-10T10:24:35.772Z,29.67
2018-06-10T10:27:03.175Z,29.46
2018-06-10T10:29:30.514Z,29.75
2018-06-10T10:31:57.933Z,30.27
2018-06-10T10:34:25.314Z,30.51
2018-06-10T10:36:52.876Z,30.96
2018-06-10T10:39:20.344Z,31.15
2018-06-10T10:41:47.701Z,31.33
2018-06-10T10:44:15.017Z,31.62
2018-06-10T10:46:42.242Z,32.09
2018-06-10T10:49:09.618Z,32.35
2018-06-10T10:51:37.138Z,32.27
2018-06-10T10:54:04.783Z,32.38
2018-06-10T10:56:32.185Z,31.90
2018-06-10T10:58:59.413Z,31.36
2018-06-10T11:01:26.739Z,31.13
2018-06-10T11:03:54.073Z,31.48
2018-06-10T11:06:21.417Z,31.55
2018-06-10T11:08:48.733Z,31.39
2018-06-10T11:11:16.055Z,31.19
2018-06-10T11:13:43.751Z,30.88
2018-06-10T11:16:10.997Z,30.77
2018-06-10T11:18:38.335Z,30.80
2018-06-10T11:21:05.684Z,31.19
2018-06-10T11:23:33.029Z,31.60
2018-06-10T11:26:00.383Z,31.53
2018-06-10T11:28:27.813Z,32.36
2018-06-10T11:30:55.117Z,32.61
2018-06-10T11:33:22.589Z,32.61
2018-06-10T11:35:49.941Z,32.86
2018-06-10T11:38:17.285Z,32.90
2018-06-10T11:40:44.695Z,32.64
2018-06-10T11:43:12.031Z,32.42
2018-06-10T11:45:39.437Z,32.02
2018-06-10T11:48:06.777Z,32.22
2018-06-10T11:50:34.232Z,32.50
2018-06-10T11:53:01.580Z,32.24
2018-06-10T11:55:28.914Z,32.47
2018-06-10T11:57:56.200Z,32.84
2018-06-10T12:00:23.573Z,33.14
2018-06-10T12:02:50.794Z,33.01
2018-06-10T12:05:18.401Z,33.29
2018-06-10T12:07:45.720Z,33.68
2018-06-10T12:10:13.019Z,34.03
2018-06-10T12:12:40.393Z,33.58
2018-06-10T12:17:40.879Z,33.73
2018-06-10T12:20:08.156Z,33.64
2018-06-10T12:22:35.486Z,33.74
2018-06-10T12:25:02.822Z,33.91
2018-06-10T12:27:30.197Z,33.92
2018-06-10T12:29:57.545Z,33.71
2018-06-10T12:32:24.978Z,33.27
2018-06-10T12:34:52.240Z,33.79
2018-06-10T12:37:19.532Z,34.25
2018-06-10T12:39:46.910Z,34.44
2018-06-10T12:42:14.252Z,34.82
2018-06-10T12:44:41.562Z,35.13
2018-06-10T12:47:08.871Z,34.81
2018-06-10T12:49:36.557Z,34.65
2018-06-10T12:52:04.209Z,34.16
2018-06-10T12:54:31.511Z,33.93
2018-06-10T12:56:58.799Z,33.81
2018-06-10T12:59:26.235Z,33.86
2018-06-10T13:01:53.529Z,33.95
2018-06-10T13:04:20.894Z,34.71
2018-06-10T13:06:48.292Z,34.40
2018-06-10T13:09:15.570Z,34.00
2018-06-10T13:11:42.948Z,34.33
2018-06-10T13:14:10.225Z,34.47
2018-06-10T13:16:37.527Z,33.96
2018-06-10T13:19:05.250Z,33.34
2018-06-10T13:21:32.621Z,33.13
2018-06-10T13:24:00.099Z,33.10
2018-06-10T13:26:27.361Z,32.84
2018-06-10T13:29:03.792Z,32.98
2018-06-10T13:31:31.175Z,33.08
2018-06-10T13:33:58.636Z,32.84
2018-06-10T13:36:26.082Z,32.71
2018-06-10T13:38:53.430Z,31.88
2018-06-10T13:41:20.807Z,31.30
2018-06-10T13:43:48.172Z,30.72
2018-06-10T13:46:15.549Z,30.80
2018-06-10T13:48:42.857Z,30.55
2018-06-10T13:51:10.134Z,30.56
2018-06-10T13:53:37.444Z,30.41
2018-06-10T13:56:04.812Z,30.48
2018-06-10T13:58:32.102Z,30.48
2018-06-10T14:00:59.408Z,30.60
2018-06-10T14:03:26.750Z,30.37
2018-06-10T14:05:54.012Z,30.16
2018-06-10T14:08:21.285Z,30.00
2018-06-10T14:10:48.796Z,29.97
2018-06-10T14:13:16.129Z,29.75
2018-06-10T14:15:43.421Z,29.42
2018-06-10T14:18:10.770Z,29.30
2018-06-10T14:20:38.073Z,28.52
2018-06-10T14:23:05.363Z,27.55
2018-06-10T14:25:32.690Z,26.73
2018-06-10T14:28:00.381Z,26.00
2018-06-10T14:30:27.698Z,25.52
2018-06-10T14:32:54.966Z,25.28
2018-06-10T14:35:22.279Z,25.59
2018-06-10T14:37:49.731Z,26.05
2018-06-10T14:40:17.120Z,26.46
2018-06-10T14:42:44.398Z,26.99
2018-06-10T14:45:11.716Z,27.32
2018-06-10T14:47:39.071Z,27.56
2018-06-10T14:50:06.484Z,27.67
2018-06-10T14:52:33.748Z,27.73
2018-06-10T14:55:01.122Z,27.85
2018-06-10T14:57:28.372Z,27.56
2018-06-10T14:59:55.676Z,27.27
2018-06-10T15:02:22.973Z,27.12
2018-06-10T15:04:50.267Z,26.75
2018-06-10T15:07:17.562Z,26.46
2018-06-10T15:09:44.832Z,26.49
2018-06-10T15:12:12.178Z,26.59
2018-06-10T15:14:39.504Z,26.70
2018-06-10T15:17:06.826Z,26.91
2018-06-10T15:19:34.088Z,26.87
2018-06-10T15:22:01.394Z,27.09
2018-06-10T15:24:28.681Z,27.33
2018-06-10T15:26:55.935Z,27.50
2018-06-10T15:29:23.275Z,27.76
2018-06-10T15:31:50.780Z,28.22
2018-06-10T15:34:18.034Z,28.48
2018-06-10T15:36:45.308Z,28.02
2018-06-10T15:39:12.635Z,27.83
2018-06-10T15:41:40.037Z,27.56
2018-06-10T15:44:07.413Z,27.54
2018-06-10T15:46:34.730Z,26.96
2018-06-10T15:49:02.024Z,28.04
2018-06-10T15:51:29.373Z,28.53
2018-06-10T15:53:56.656Z,29.24
2018-06-10T15:56:24.192Z,29.76
2018-06-10T15:58:51.629Z,30.19
2018-06-10T16:01:18.943Z,30.41
2018-06-10T16:03:46.301Z,30.08
2018-06-10T16:06:13.634Z,30.11
2018-06-10T16:08:40.917Z,30.34
2018-06-10T16:11:08.237Z,30.67
2018-06-10T16:13:35.651Z,30.66
2018-06-10T16:16:03.259Z,30.60
2018-06-10T16:18:30.627Z,30.56
2018-06-10T16:20:57.904Z,30.56
2018-06-10T16:23:25.395Z,30.52
2018-06-10T16:25:52.700Z,30.34
2018-06-10T16:28:20.037Z,30.26
2018-06-10T16:30:47.340Z,30.25
2018-06-10T16:33:14.645Z,30.16
2018-06-10T16:35:42.087Z,30.13
2018-06-10T16:38:09.492Z,29.89
2018-06-10T16:40:36.852Z,29.88
2018-06-10T16:43:04.351Z,29.78
2018-06-10T16:45:31.700Z,29.85
2018-06-10T16:47:59.021Z,29.80
2018-06-10T16:50:26.421Z,29.84
2018-06-10T16:52:53.788Z,29.92
2018-06-10T16:55:21.134Z,29.98
2018-06-10T16:57:48.448Z,29.98
2018-06-10T17:00:15.841Z,29.85
2018-06-10T17:02:43.427Z,29.69
2018-06-10T17:05:10.915Z,29.79
2018-06-10T17:07:38.475Z,29.79
2018-06-10T17:10:05.981Z,29.82
2018-06-10T17:12:33.302Z,29.64
2018-06-10T17:15:03.546Z,29.64
2018-06-10T17:17:30.992Z,29.55
2018-06-10T17:19:58.647Z,29.66
2018-06-10T17:22:25.988Z,29.47
2018-06-10T17:24:53.364Z,29.33
2018-06-10T17:27:20.778Z,29.19
2018-06-10T17:29:48.072Z,29.10
2018-06-10T17:32:15.485Z,29.08
2018-06-10T17:34:42.978Z,28.99
2018-06-10T17:37:10.222Z,29.01
2018-06-10T17:39:38.253Z,28.91
2018-06-10T17:42:15.292Z,28.94
2018-06-10T17:44:43.266Z,28.96
2018-06-10T17:47:10.639Z,28.95
2018-06-10T17:49:38.660Z,28.85
2018-06-10T17:52:06.057Z,28.76
2018-06-10T17:54:33.360Z,28.61
2018-06-10T17:57:05.783Z,28.27
2018-06-10T17:59:33.292Z,27.57
2018-06-10T18:02:00.705Z,26.94
2018-06-10T18:04:28.020Z,26.38
2018-06-10T18:06:55.640Z,26.49
2018-06-10T18:09:22.988Z,26.60
2018-06-10T18:11:50.579Z,26.59
2018-06-10T18:14:18.040Z,26.79
2018-06-10T18:16:45.403Z,26.89
2018-06-10T18:19:12.677Z,27.02
2018-06-10T18:21:39.998Z,26.85
2018-06-10T18:24:07.311Z,26.80
2018-06-10T18:26:34.795Z,26.86
2018-06-10T18:29:02.053Z,26.82
2018-06-10T18:31:29.382Z,26.79
2018-06-10T18:33:56.759Z,26.77
2018-06-10T18:36:24.105Z,26.73
2018-06-10T18:38:51.399Z,26.64
2018-06-10T18:41:18.712Z,26.53
2018-06-10T18:43:46.028Z,26.55
2018-06-10T18:46:13.349Z,26.57
2018-06-10T18:48:40.767Z,26.43
2018-06-10T18:51:08.004Z,26.32
2018-06-10T18:53:35.350Z,25.91
2018-06-10T18:56:02.667Z,25.63
2018-06-10T18:58:30.017Z,25.52
2018-06-10T19:00:57.365Z,25.51
2018-06-10T19:03:24.857Z,25.44
2018-06-10T19:05:52.230Z,25.40
2018-06-10T19:08:19.573Z,25.34
2018-06-10T19:10:46.841Z,25.31
2018-06-10T19:13:14.130Z,25.16
2018-06-10T19:15:41.824Z,24.72
2018-06-10T19:18:09.039Z,24.45
2018-06-10T19:20:36.404Z,24.35
2018-06-10T19:23:03.752Z,24.30
2018-06-10T19:25:31.109Z,24.24
2018-06-10T19:27:58.537Z,24.22
2018-06-10T19:30:25.843Z,24.22
2018-06-10T19:32:53.236Z,24.21
2018-06-10T19:35:20.622Z,24.02
2018-06-10T19:37:49.112Z,23.84
2018-06-10T19:40:16.393Z,23.84
2018-06-10T19:42:43.697Z,23.76
2018-06-10T19:45:10.990Z,23.37
2018-06-10T19:47:50.747Z,23.01
2018-06-10T19:50:18.033Z,23.03
2018-06-10T19:52:45.331Z,23.15
2018-06-10T19:55:12.652Z,23.30
2018-06-10T19:57:53.477Z,23.40
2018-06-10T20:00:21.742Z,23.39
2018-06-10T20:02:49.144Z,23.37
2018-06-10T20:05:22.431Z,23.31
2018-06-10T20:07:49.783Z,23.21
2018-06-10T20:10:17.209Z,23.24
2018-06-10T20:12:44.521Z,23.08
2018-06-10T20:15:11.835Z,23.02
2018-06-10T20:17:39.189Z,23.09
2018-06-10T20:20:06.890Z,23.03
2018-06-10T20:22:35.109Z,23.02
2018-06-10T20:25:15.976Z,23.09
2018-06-10T20:27:44.083Z,23.08
2018-06-10T20:30:11.865Z,23.02
2018-06-10T20:32:39.299Z,22.90
2018-06-10T20:35:06.806Z,22.93
2018-06-10T20:37:34.247Z,23.02
2018-06-10T20:40:01.797Z,23.03
2018-06-10T20:42:29.355Z,22.90
2018-06-10T20:44:56.743Z,22.87
2018-06-10T20:47:24.164Z,22.73
2018-06-10T20:49:51.623Z,22.79
2018-06-10T20:52:19.210Z,22.82
2018-06-10T20:54:47.154Z,22.83
2018-06-10T20:57:15.336Z,22.86
2018-06-10T20:59:43.229Z,22.85
2018-06-10T21:02:12.531Z,22.74
2018-06-10T21:04:40.190Z,22.82
2018-06-10T21:07:08.333Z,22.78
2018-06-10T21:09:36.935Z,22.71
2018-06-10T21:12:10.204Z,22.59
2018-06-10T21:14:43.342Z,22.65
2018-06-10T21:17:10.787Z,22.63
2018-06-10T21:19:38.273Z,22.49
2018-06-10T21:22:05.728Z,22.36
2018-06-10T21:24:32.990Z,22.37
2018-06-10T21:27:00.362Z,22.45
2018-06-10T21:29:27.725Z,22.54
2018-06-10T21:31:55.047Z,22.51
2018-06-10T21:34:34.319Z,22.45
2018-06-10T21:37:02.452Z,22.39
2018-06-10T21:39:29.817Z,22.38
2018-06-10T21:41:57.740Z,22.40
2018-06-10T21:44:25.083Z,22.44
2018-06-10T21:46:53.653Z,22.54
2018-06-10T21:49:21.032Z,22.53
2018-06-10T21:51:48.358Z,22.45
2018-06-10T21:54:15.729Z,22.49
2018-06-10T21:56:43.063Z,22.01
2018-06-10T21:59:21.678Z,21.96
2018-06-10T22:01:49.146Z,21.86
2018-06-10T22:04:20.262Z,21.90
2018-06-10T22:06:47.619Z,21.93
2018-06-10T22:09:14.960Z,21.92
2018-06-10T22:11:42.651Z,22.08
2018-06-10T22:14:10.081Z,22.10
2018-06-10T22:16:37.640Z,22.29
2018-06-10T22:19:05.395Z,22.36
2018-06-10T22:21:49.672Z,22.25
2018-06-10T22:24:17.767Z,22.28
2018-06-10T22:26:45.079Z,22.25
2018-06-10T22:29:12.381Z,22.12
2018-06-10T22:31:39.706Z,22.11
2018-06-10T22:34:07.058Z,22.12
2018-06-10T22:36:34.400Z,22.00
2018-06-10T22:39:01.703Z,21.93
2018-06-10T22:41:28.959Z,21.89
2018-06-10T22:43:56.339Z,21.88
2018-06-10T22:46:23.595Z,21.88
2018-06-10T22:48:50.886Z,21.77
2018-06-10T22:51:18.329Z,21.82
2018-06-10T22:54:22.779Z,21.76
2018-06-10T22:56:50.118Z,21.67
2018-06-10T22:59:17.391Z,21.61
2018-06-10T23:01:44.709Z,21.63
2018-06-10T23:04:11.993Z,21.65
2018-06-10T23:06:39.305Z,21.69
2018-06-10T23:09:07.158Z,21.67
2018-06-10T23:11:34.436Z,21.67
2018-06-10T23:14:01.817Z,21.65
2018-06-10T23:16:29.114Z,21.57
2018-06-10T23:18:56.535Z,21.56
2018-06-10T23:21:23.821Z,21.54
2018-06-10T23:23:51.894Z,21.37
2018-06-10T23:26:19.162Z,21.34
2018-06-10T23:28:46.517Z,21.38
2018-06-10T23:31:13.793Z,21.32
2018-06-10T23:33:41.123Z,21.27
2018-06-10T23:36:08.470Z,21.22
2018-06-10T23:38:35.812Z,21.21
2018-06-10T23:41:03.177Z,21.13
2018-06-10T23:43:30.416Z,21.07
2018-06-10T23:45:57.762Z,20.98
2018-06-10T23:48:25.162Z,20.99
2018-06-10T23:50:52.405Z,20.98
2018-06-10T23:53:19.688Z,21.02
2018-06-10T23:55:46.944Z,21.14
2018-06-10T23:58:14.167Z,21.20
